Terminal Aerodrome Forecast
Issued by NWS Twin Cities, MN

Home | Current Version | Previous Version | Graphics & Text | Print | Product List | Glossary On
Versions: 1 2 3 4 5 6 7 8 9 10 11 12 13 14 15 16 17 18 19 20 21 22 23 24 25 26 27 28 29
828
FTUS43 KMPX 202100 AAA
TAFMSP
TAF AMD
KMSP 202100Z 2021/2124 14006KT 4SM BR OVC005
     FM210000 12004KT 3SM BR OVC004
     FM210600 10005KT 2SM -DZ BR OVC003
     FM211200 09006KT 4SM -RA BR OVC005=

USA.gov is the U.S. government's official web portal to all federal, state and local government web resources and services.